Hlavní strana
METAR-TAF:

METAR-TAF

Letiště :

Ivalo, Finsko

zeměpisná šířka: 68-37N, zeměpisná délka: 027-25E, výška: 147 m

Aktuální stav počasí

Zpráva byla vytvořena před 22 minutami, v 10:50 UTC
Východní vítr 2 kt
Teplota 0°C
Vlhkost vzduchu 93%
Tlak 1000 hPa
Viditelnost 10 km a více
Skoro jasno ve výšce 3000 ft
Zataženo ve výšce 5200 ft

METAR: EFIV 231050Z AUTO 08002KT 9999 FEW030 OVC052 M00/M01 Q1000

Čas: 14:12 (11:12 UTC)


TAF: chybějící

Stav a předpovědi počasí z více než 4 000 letišť (zprávy METAR a TAF).

Červené a žluté tečky na mapě představují dostupné meteorologické stanice.

Když kurzor umístíte na tečku, zobrazí se název stanice.

Pak kliknutím zobrazíte stav a předpověď počasí.

Chcete-li změnit mapu, kliknutím na zelené tlačítko se znaménkem +mapu přiblížíte, kliknutím na zelené tlačítko se znaménkem – mapu oddálíte a kliknutím na zelené šipky přejdete na sousední mapy.


METAR-TAF: